Bartonsville, Vermont
Current Conditions -  °F | °C
As of 12:10 AM on Sunday 26 Oct 2014 (Local Time) from KVSF Reporting Station
Light Rain Light Rain  
Wind Chill:   Ceiling: 7500
Heat Index:   Visibility: 3mi
Dew Point:   Wind: 5mph
Humidity: 100%   Direction: NA
Pressure: 29.5"   Gusts: NA
Location:  43.2811°N, 72.6352°W
Report Text: KVSF 260410Z AUTO VRB04KT 3SM -RA BR FEW060 BKN075 BKN095 07/07 A2950 RMK AO2 RAB07 P0000 T00720072
Loading
Personal Weather Stations






























Interactive Weather Map
Tropical Storm Tracking
New forecast layout! Learn more

10-Day Weather Forecast

Advertisements
Track Severe Weather on mobile